sensor_id;sensor_type;location;lat;lon;timestamp;P1;durP1;ratioP1;P2;durP2;ratioP2
2390;SDS011;22957;50.824;4.360;2023-05-10T00:01:37;11.90;;;6.10;;
2390;SDS011;22957;50.824;4.360;2023-05-10T00:04:03;13.10;;;6.43;;
2390;SDS011;22957;50.824;4.360;2023-05-10T00:06:28;8.83;;;4.97;;
2390;SDS011;22957;50.824;4.360;2023-05-10T00:08:55;15.13;;;6.37;;
2390;SDS011;22957;50.824;4.360;2023-05-10T00:11:20;8.57;;;5.00;;
2390;SDS011;22957;50.824;4.360;2023-05-10T00:13:46;6.93;;;4.60;;
2390;SDS011;22957;50.824;4.360;2023-05-10T00:16:12;10.33;;;6.03;;
2390;SDS011;22957;50.824;4.360;2023-05-10T00:18:38;11.60;;;5.57;;
2390;SDS011;22957;50.824;4.360;2023-05-10T00:21:04;8.50;;;5.73;;
2390;SDS011;22957;50.824;4.360;2023-05-10T00:23:30;9.43;;;5.00;;
2390;SDS011;22957;50.824;4.360;2023-05-10T00:25:56;14.83;;;6.30;;
2390;SDS011;22957;50.824;4.360;2023-05-10T00:28:21;12.30;;;5.47;;
2390;SDS011;22957;50.824;4.360;2023-05-10T00:30:47;9.77;;;5.57;;
2390;SDS011;22957;50.824;4.360;2023-05-10T00:33:13;14.90;;;6.40;;
2390;SDS011;22957;50.824;4.360;2023-05-10T00:35:38;10.63;;;4.83;;
2390;SDS011;22957;50.824;4.360;2023-05-10T00:38:04;14.50;;;6.17;;
2390;SDS011;22957;50.824;4.360;2023-05-10T00:40:30;10.60;;;7.03;;
2390;SDS011;22957;50.824;4.360;2023-05-10T00:42:55;9.50;;;5.13;;
2390;SDS011;22957;50.824;4.360;2023-05-10T00:45:22;8.50;;;6.07;;
2390;SDS011;22957;50.824;4.360;2023-05-10T00:47:48;12.47;;;6.30;;
2390;SDS011;22957;50.824;4.360;2023-05-10T00:50:14;13.33;;;5.70;;
2390;SDS011;22957;50.824;4.360;2023-05-10T00:52:40;7.40;;;5.37;;
2390;SDS011;22957;50.824;4.360;2023-05-10T00:55:07;13.37;;;6.93;;
2390;SDS011;22957;50.824;4.360;2023-05-10T00:57:34;13.10;;;7.30;;
2390;SDS011;22957;50.824;4.360;2023-05-10T01:00:00;10.30;;;6.70;;
2390;SDS011;22957;50.824;4.360;2023-05-10T01:02:27;11.07;;;6.87;;
2390;SDS011;22957;50.824;4.360;2023-05-10T01:04:53;12.23;;;6.70;;
2390;SDS011;22957;50.824;4.360;2023-05-10T01:07:19;10.57;;;6.90;;
2390;SDS011;22957;50.824;4.360;2023-05-10T01:09:45;14.37;;;8.30;;
2390;SDS011;22957;50.824;4.360;2023-05-10T01:12:11;15.60;;;7.60;;
2390;SDS011;22957;50.824;4.360;2023-05-10T01:14:37;20.43;;;7.97;;
2390;SDS011;22957;50.824;4.360;2023-05-10T01:17:03;12.50;;;7.53;;
2390;SDS011;22957;50.824;4.360;2023-05-10T01:19:31;13.87;;;6.93;;
2390;SDS011;22957;50.824;4.360;2023-05-10T01:27:20;14.70;;;8.70;;
2390;SDS011;22957;50.824;4.360;2023-05-10T01:46:46;13.40;;;7.70;;
2390;SDS011;22957;50.824;4.360;2023-05-10T01:49:29;13.37;;;8.03;;
2390;SDS011;22957;50.824;4.360;2023-05-10T01:51:59;14.77;;;7.40;;
2390;SDS011;22957;50.824;4.360;2023-05-10T01:54:31;13.67;;;9.07;;
2390;SDS011;22957;50.824;4.360;2023-05-10T01:57:00;13.80;;;8.30;;
2390;SDS011;22957;50.824;4.360;2023-05-10T01:59:30;12.63;;;7.53;;
2390;SDS011;22957;50.824;4.360;2023-05-10T02:02:05;15.13;;;8.80;;
2390;SDS011;22957;50.824;4.360;2023-05-10T02:04:36;11.37;;;7.33;;
2390;SDS011;22957;50.824;4.360;2023-05-10T02:07:03;13.80;;;8.57;;
2390;SDS011;22957;50.824;4.360;2023-05-10T02:09:30;11.90;;;7.77;;
2390;SDS011;22957;50.824;4.360;2023-05-10T02:11:59;17.20;;;8.87;;
2390;SDS011;22957;50.824;4.360;2023-05-10T02:14:27;14.13;;;8.80;;
2390;SDS011;22957;50.824;4.360;2023-05-10T02:16:57;12.40;;;8.30;;
2390;SDS011;22957;50.824;4.360;2023-05-10T02:19:25;15.43;;;8.63;;
2390;SDS011;22957;50.824;4.360;2023-05-10T02:21:53;17.73;;;9.80;;
2390;SDS011;22957;50.824;4.360;2023-05-10T02:24:20;15.00;;;8.63;;
2390;SDS011;22957;50.824;4.360;2023-05-10T02:26:49;12.40;;;7.50;;
2390;SDS011;22957;50.824;4.360;2023-05-10T02:29:19;14.23;;;7.57;;
2390;SDS011;22957;50.824;4.360;2023-05-10T02:31:45;13.07;;;8.23;;
2390;SDS011;22957;50.824;4.360;2023-05-10T02:34:12;13.53;;;8.90;;
2390;SDS011;22957;50.824;4.360;2023-05-10T02:36:38;15.93;;;8.63;;
2390;SDS011;22957;50.824;4.360;2023-05-10T02:39:06;11.33;;;6.67;;
2390;SDS011;22957;50.824;4.360;2023-05-10T02:41:35;13.30;;;7.47;;
2390;SDS011;22957;50.824;4.360;2023-05-10T02:44:01;9.53;;;6.43;;
2390;SDS011;22957;50.824;4.360;2023-05-10T02:46:28;13.00;;;7.00;;
2390;SDS011;22957;50.824;4.360;2023-05-10T02:48:54;12.80;;;7.20;;
2390;SDS011;22957;50.824;4.360;2023-05-10T02:51:20;11.77;;;7.47;;
2390;SDS011;22957;50.824;4.360;2023-05-10T02:53:50;13.60;;;8.07;;
2390;SDS011;22957;50.824;4.360;2023-05-10T02:56:34;19.03;;;7.90;;
2390;SDS011;22957;50.824;4.360;2023-05-10T02:59:05;12.40;;;6.70;;
2390;SDS011;22957;50.824;4.360;2023-05-10T03:01:31;11.83;;;7.60;;
2390;SDS011;22957;50.824;4.360;2023-05-10T03:03:57;11.50;;;7.00;;
2390;SDS011;22957;50.824;4.360;2023-05-10T03:06:23;13.00;;;7.40;;
2390;SDS011;22957;50.824;4.360;2023-05-10T03:08:48;9.97;;;6.80;;
2390;SDS011;22957;50.824;4.360;2023-05-10T03:11:24;9.67;;;6.00;;
2390;SDS011;22957;50.824;4.360;2023-05-10T03:16:27;16.73;;;9.40;;
2390;SDS011;22957;50.824;4.360;2023-05-10T03:19:01;14.97;;;9.40;;
2390;SDS011;22957;50.824;4.360;2023-05-10T03:21:57;13.37;;;8.40;;
2390;SDS011;22957;50.824;4.360;2023-05-10T03:24:27;10.90;;;6.83;;
2390;SDS011;22957;50.824;4.360;2023-05-10T03:26:55;15.23;;;8.87;;
2390;SDS011;22957;50.824;4.360;2023-05-10T03:29:25;15.37;;;7.10;;
2390;SDS011;22957;50.824;4.360;2023-05-10T03:31:51;12.53;;;7.60;;
2390;SDS011;22957;50.824;4.360;2023-05-10T03:34:22;13.50;;;8.77;;
2390;SDS011;22957;50.824;4.360;2023-05-10T03:36:49;12.00;;;7.30;;
2390;SDS011;22957;50.824;4.360;2023-05-10T03:39:14;19.77;;;10.63;;
2390;SDS011;22957;50.824;4.360;2023-05-10T03:41:40;16.10;;;9.83;;
2390;SDS011;22957;50.824;4.360;2023-05-10T03:44:06;18.87;;;9.90;;
2390;SDS011;22957;50.824;4.360;2023-05-10T03:46:31;12.50;;;8.53;;
2390;SDS011;22957;50.824;4.360;2023-05-10T03:48:57;15.17;;;8.67;;
2390;SDS011;22957;50.824;4.360;2023-05-10T03:51:23;16.67;;;9.93;;
2390;SDS011;22957;50.824;4.360;2023-05-10T03:53:52;13.43;;;8.20;;
2390;SDS011;22957;50.824;4.360;2023-05-10T03:56:21;16.63;;;9.23;;
2390;SDS011;22957;50.824;4.360;2023-05-10T03:58:47;18.70;;;10.20;;
2390;SDS011;22957;50.824;4.360;2023-05-10T04:01:12;19.70;;;11.40;;
2390;SDS011;22957;50.824;4.360;2023-05-10T04:03:38;15.77;;;8.87;;
2390;SDS011;22957;50.824;4.360;2023-05-10T04:06:03;18.43;;;10.97;;
2390;SDS011;22957;50.824;4.360;2023-05-10T04:08:30;16.33;;;10.53;;
2390;SDS011;22957;50.824;4.360;2023-05-10T04:11:05;16.93;;;11.70;;
2390;SDS011;22957;50.824;4.360;2023-05-10T04:13:32;17.03;;;11.47;;
2390;SDS011;22957;50.824;4.360;2023-05-10T04:15:58;19.53;;;11.53;;
2390;SDS011;22957;50.824;4.360;2023-05-10T04:18:24;20.13;;;12.30;;
2390;SDS011;22957;50.824;4.360;2023-05-10T04:20:50;18.30;;;10.90;;
2390;SDS011;22957;50.824;4.360;2023-05-10T04:23:15;20.40;;;11.93;;
2390;SDS011;22957;50.824;4.360;2023-05-10T04:25:41;16.53;;;11.07;;
2390;SDS011;22957;50.824;4.360;2023-05-10T04:28:07;18.67;;;11.90;;
2390;SDS011;22957;50.824;4.360;2023-05-10T04:30:33;22.47;;;11.83;;
2390;SDS011;22957;50.824;4.360;2023-05-10T04:32:59;21.20;;;11.27;;
2390;SDS011;22957;50.824;4.360;2023-05-10T04:35:26;19.90;;;10.97;;
2390;SDS011;22957;50.824;4.360;2023-05-10T04:37:53;19.30;;;11.50;;
2390;SDS011;22957;50.824;4.360;2023-05-10T04:40:18;19.77;;;10.27;;
2390;SDS011;22957;50.824;4.360;2023-05-10T04:42:45;17.27;;;10.53;;
2390;SDS011;22957;50.824;4.360;2023-05-10T04:45:11;14.73;;;9.33;;
2390;SDS011;22957;50.824;4.360;2023-05-10T04:47:37;14.03;;;9.40;;
2390;SDS011;22957;50.824;4.360;2023-05-10T04:50:03;16.17;;;11.17;;
2390;SDS011;22957;50.824;4.360;2023-05-10T04:52:29;18.97;;;11.50;;
2390;SDS011;22957;50.824;4.360;2023-05-10T04:54:55;20.10;;;12.30;;
2390;SDS011;22957;50.824;4.360;2023-05-10T04:57:20;17.30;;;11.43;;
2390;SDS011;22957;50.824;4.360;2023-05-10T04:59:46;17.57;;;11.67;;
2390;SDS011;22957;50.824;4.360;2023-05-10T05:02:12;17.57;;;11.30;;
2390;SDS011;22957;50.824;4.360;2023-05-10T05:04:38;18.07;;;10.83;;
2390;SDS011;22957;50.824;4.360;2023-05-10T05:07:03;24.07;;;11.10;;
2390;SDS011;22957;50.824;4.360;2023-05-10T05:09:29;14.33;;;9.13;;
2390;SDS011;22957;50.824;4.360;2023-05-10T05:11:56;15.20;;;9.70;;
2390;SDS011;22957;50.824;4.360;2023-05-10T05:14:22;11.70;;;8.10;;
2390;SDS011;22957;50.824;4.360;2023-05-10T05:16:50;14.63;;;8.37;;
2390;SDS011;22957;50.824;4.360;2023-05-10T05:19:16;10.37;;;7.90;;
2390;SDS011;22957;50.824;4.360;2023-05-10T05:21:41;10.87;;;7.30;;
2390;SDS011;22957;50.824;4.360;2023-05-10T05:24:08;13.60;;;8.00;;
2390;SDS011;22957;50.824;4.360;2023-05-10T05:26:35;12.50;;;7.00;;
2390;SDS011;22957;50.824;4.360;2023-05-10T05:29:00;17.23;;;8.27;;
2390;SDS011;22957;50.824;4.360;2023-05-10T05:31:26;18.20;;;8.87;;
2390;SDS011;22957;50.824;4.360;2023-05-10T05:33:52;11.17;;;7.10;;
2390;SDS011;22957;50.824;4.360;2023-05-10T05:36:17;14.67;;;8.70;;
2390;SDS011;22957;50.824;4.360;2023-05-10T05:38:43;18.80;;;9.27;;
2390;SDS011;22957;50.824;4.360;2023-05-10T05:41:08;14.73;;;8.20;;
2390;SDS011;22957;50.824;4.360;2023-05-10T05:43:34;14.10;;;8.30;;
2390;SDS011;22957;50.824;4.360;2023-05-10T05:45:59;14.50;;;8.50;;
2390;SDS011;22957;50.824;4.360;2023-05-10T05:48:25;18.37;;;9.27;;
2390;SDS011;22957;50.824;4.360;2023-05-10T05:50:53;14.47;;;8.00;;
2390;SDS011;22957;50.824;4.360;2023-05-10T05:53:20;15.73;;;8.93;;
2390;SDS011;22957;50.824;4.360;2023-05-10T05:55:52;13.40;;;8.70;;
2390;SDS011;22957;50.824;4.360;2023-05-10T05:58:23;14.20;;;8.37;;
2390;SDS011;22957;50.824;4.360;2023-05-10T06:00:50;13.50;;;9.10;;
2390;SDS011;22957;50.824;4.360;2023-05-10T06:03:19;15.50;;;8.17;;
2390;SDS011;22957;50.824;4.360;2023-05-10T06:05:45;12.20;;;7.30;;
2390;SDS011;22957;50.824;4.360;2023-05-10T06:08:11;23.57;;;9.10;;
2390;SDS011;22957;50.824;4.360;2023-05-10T06:10:37;11.00;;;6.90;;
2390;SDS011;22957;50.824;4.360;2023-05-10T06:13:02;15.90;;;7.83;;
2390;SDS011;22957;50.824;4.360;2023-05-10T06:15:28;12.03;;;6.33;;
2390;SDS011;22957;50.824;4.360;2023-05-10T06:17:53;10.83;;;6.30;;
2390;SDS011;22957;50.824;4.360;2023-05-10T06:20:19;11.80;;;5.70;;
2390;SDS011;22957;50.824;4.360;2023-05-10T06:22:45;10.27;;;5.70;;
2390;SDS011;22957;50.824;4.360;2023-05-10T06:25:10;14.20;;;5.50;;
2390;SDS011;22957;50.824;4.360;2023-05-10T06:27:36;7.60;;;4.60;;
2390;SDS011;22957;50.824;4.360;2023-05-10T06:30:02;13.30;;;4.60;;
2390;SDS011;22957;50.824;4.360;2023-05-10T06:32:28;9.90;;;4.63;;
2390;SDS011;22957;50.824;4.360;2023-05-10T06:34:53;10.60;;;4.90;;
2390;SDS011;22957;50.824;4.360;2023-05-10T06:37:19;7.50;;;3.87;;
2390;SDS011;22957;50.824;4.360;2023-05-10T06:39:45;6.70;;;3.80;;
2390;SDS011;22957;50.824;4.360;2023-05-10T06:42:10;6.57;;;3.90;;
2390;SDS011;22957;50.824;4.360;2023-05-10T06:44:36;6.53;;;4.23;;
2390;SDS011;22957;50.824;4.360;2023-05-10T06:47:01;11.70;;;4.23;;
2390;SDS011;22957;50.824;4.360;2023-05-10T06:49:27;6.90;;;3.90;;
2390;SDS011;22957;50.824;4.360;2023-05-10T06:51:53;9.60;;;4.20;;
2390;SDS011;22957;50.824;4.360;2023-05-10T06:54:20;7.73;;;5.17;;
2390;SDS011;22957;50.824;4.360;2023-05-10T06:56:46;8.27;;;5.50;;
2390;SDS011;22957;50.824;4.360;2023-05-10T06:59:11;7.90;;;4.00;;
2390;SDS011;22957;50.824;4.360;2023-05-10T07:01:38;5.87;;;3.93;;
2390;SDS011;22957;50.824;4.360;2023-05-10T07:04:04;9.80;;;4.60;;
2390;SDS011;22957;50.824;4.360;2023-05-10T07:06:30;8.67;;;5.27;;
2390;SDS011;22957;50.824;4.360;2023-05-10T07:08:55;7.30;;;3.90;;
2390;SDS011;22957;50.824;4.360;2023-05-10T07:11:22;11.60;;;5.57;;
2390;SDS011;22957;50.824;4.360;2023-05-10T07:13:47;9.70;;;5.20;;
2390;SDS011;22957;50.824;4.360;2023-05-10T07:16:13;11.80;;;4.50;;
2390;SDS011;22957;50.824;4.360;2023-05-10T07:18:38;9.90;;;4.73;;
2390;SDS011;22957;50.824;4.360;2023-05-10T07:21:04;7.90;;;5.10;;
2390;SDS011;22957;50.824;4.360;2023-05-10T07:23:30;10.73;;;6.40;;
2390;SDS011;22957;50.824;4.360;2023-05-10T07:25:55;10.83;;;5.10;;
2390;SDS011;22957;50.824;4.360;2023-05-10T07:28:22;12.87;;;6.60;;
2390;SDS011;22957;50.824;4.360;2023-05-10T07:30:49;17.30;;;6.30;;
2390;SDS011;22957;50.824;4.360;2023-05-10T07:33:15;11.83;;;6.03;;
2390;SDS011;22957;50.824;4.360;2023-05-10T07:35:41;9.00;;;6.23;;
2390;SDS011;22957;50.824;4.360;2023-05-10T07:38:07;15.07;;;6.43;;
2390;SDS011;22957;50.824;4.360;2023-05-10T07:40:32;14.70;;;6.30;;
2390;SDS011;22957;50.824;4.360;2023-05-10T07:42:58;10.47;;;5.53;;
2390;SDS011;22957;50.824;4.360;2023-05-10T07:45:26;9.47;;;6.20;;
2390;SDS011;22957;50.824;4.360;2023-05-10T07:47:52;11.37;;;6.43;;
2390;SDS011;22957;50.824;4.360;2023-05-10T07:50:17;15.77;;;6.30;;
2390;SDS011;22957;50.824;4.360;2023-05-10T07:52:43;11.10;;;5.53;;
2390;SDS011;22957;50.824;4.360;2023-05-10T07:55:09;10.20;;;5.80;;
2390;SDS011;22957;50.824;4.360;2023-05-10T07:57:35;14.67;;;4.87;;
2390;SDS011;22957;50.824;4.360;2023-05-10T08:00:01;11.90;;;5.13;;
2390;SDS011;22957;50.824;4.360;2023-05-10T08:02:27;12.07;;;5.53;;
2390;SDS011;22957;50.824;4.360;2023-05-10T08:04:53;7.30;;;5.10;;
2390;SDS011;22957;50.824;4.360;2023-05-10T08:07:19;9.73;;;5.30;;
2390;SDS011;22957;50.824;4.360;2023-05-10T08:09:44;10.87;;;5.80;;
2390;SDS011;22957;50.824;4.360;2023-05-10T08:12:10;5.03;;;4.40;;
2390;SDS011;22957;50.824;4.360;2023-05-10T08:14:35;8.23;;;4.80;;
2390;SDS011;22957;50.824;4.360;2023-05-10T08:17:04;7.90;;;4.80;;
2390;SDS011;22957;50.824;4.360;2023-05-10T08:19:29;7.27;;;4.40;;
2390;SDS011;22957;50.824;4.360;2023-05-10T08:21:55;7.37;;;4.33;;
2390;SDS011;22957;50.824;4.360;2023-05-10T08:24:21;5.63;;;3.53;;
2390;SDS011;22957;50.824;4.360;2023-05-10T08:26:47;6.17;;;4.53;;
2390;SDS011;22957;50.824;4.360;2023-05-10T08:29:13;6.93;;;3.63;;
2390;SDS011;22957;50.824;4.360;2023-05-10T08:31:39;5.37;;;4.00;;
2390;SDS011;22957;50.824;4.360;2023-05-10T08:34:04;5.63;;;3.60;;
2390;SDS011;22957;50.824;4.360;2023-05-10T08:36:30;8.40;;;4.10;;
2390;SDS011;22957;50.824;4.360;2023-05-10T08:38:57;5.00;;;3.53;;
2390;SDS011;22957;50.824;4.360;2023-05-10T08:41:23;5.90;;;4.00;;
2390;SDS011;22957;50.824;4.360;2023-05-10T08:43:51;6.37;;;3.87;;
2390;SDS011;22957;50.824;4.360;2023-05-10T08:46:18;7.10;;;3.50;;
2390;SDS011;22957;50.824;4.360;2023-05-10T08:48:45;6.10;;;3.63;;
2390;SDS011;22957;50.824;4.360;2023-05-10T08:51:17;8.57;;;4.50;;
2390;SDS011;22957;50.824;4.360;2023-05-10T08:53:45;6.57;;;4.03;;
2390;SDS011;22957;50.824;4.360;2023-05-10T08:56:11;5.07;;;3.63;;
2390;SDS011;22957;50.824;4.360;2023-05-10T08:58:37;4.60;;;4.00;;
2390;SDS011;22957;50.824;4.360;2023-05-10T09:01:03;6.20;;;4.27;;
2390;SDS011;22957;50.824;4.360;2023-05-10T09:03:30;5.43;;;3.63;;
2390;SDS011;22957;50.824;4.360;2023-05-10T09:05:56;8.70;;;4.80;;
2390;SDS011;22957;50.824;4.360;2023-05-10T09:08:25;7.60;;;4.53;;
2390;SDS011;22957;50.824;4.360;2023-05-10T09:10:52;8.23;;;4.70;;
2390;SDS011;22957;50.824;4.360;2023-05-10T09:13:19;6.10;;;4.07;;
2390;SDS011;22957;50.824;4.360;2023-05-10T09:15:46;6.23;;;3.90;;
2390;SDS011;22957;50.824;4.360;2023-05-10T09:18:12;6.57;;;3.83;;
2390;SDS011;22957;50.824;4.360;2023-05-10T09:20:38;5.30;;;3.87;;
2390;SDS011;22957;50.824;4.360;2023-05-10T09:23:04;5.30;;;4.27;;
2390;SDS011;22957;50.824;4.360;2023-05-10T09:25:30;5.00;;;4.20;;
2390;SDS011;22957;50.824;4.360;2023-05-10T09:27:58;4.60;;;3.90;;
2390;SDS011;22957;50.824;4.360;2023-05-10T09:30:25;5.93;;;4.17;;
2390;SDS011;22957;50.824;4.360;2023-05-10T09:32:53;6.40;;;3.70;;
2390;SDS011;22957;50.824;4.360;2023-05-10T09:35:20;6.97;;;4.30;;
2390;SDS011;22957;50.824;4.360;2023-05-10T09:37:48;4.97;;;3.43;;
2390;SDS011;22957;50.824;4.360;2023-05-10T09:40:19;6.63;;;3.50;;
2390;SDS011;22957;50.824;4.360;2023-05-10T09:42:57;7.90;;;3.43;;
2390;SDS011;22957;50.824;4.360;2023-05-10T09:45:25;8.40;;;3.40;;
2390;SDS011;22957;50.824;4.360;2023-05-10T09:47:55;5.67;;;3.60;;
2390;SDS011;22957;50.824;4.360;2023-05-10T09:50:21;5.20;;;3.50;;
2390;SDS011;22957;50.824;4.360;2023-05-10T09:52:54;3.03;;;2.80;;
2390;SDS011;22957;50.824;4.360;2023-05-10T09:55:24;5.80;;;3.23;;
2390;SDS011;22957;50.824;4.360;2023-05-10T09:58:07;5.27;;;3.17;;
2390;SDS011;22957;50.824;4.360;2023-05-10T10:00:37;3.80;;;3.43;;
2390;SDS011;22957;50.824;4.360;2023-05-10T10:03:04;5.17;;;3.07;;
2390;SDS011;22957;50.824;4.360;2023-05-10T10:05:34;5.23;;;2.80;;
2390;SDS011;22957;50.824;4.360;2023-05-10T10:08:01;3.73;;;3.00;;
2390;SDS011;22957;50.824;4.360;2023-05-10T10:10:28;6.07;;;4.27;;
2390;SDS011;22957;50.824;4.360;2023-05-10T10:12:55;5.13;;;4.07;;
2390;SDS011;22957;50.824;4.360;2023-05-10T10:15:22;5.10;;;3.40;;
2390;SDS011;22957;50.824;4.360;2023-05-10T10:17:48;5.87;;;3.57;;
2390;SDS011;22957;50.824;4.360;2023-05-10T10:20:16;6.70;;;3.53;;
2390;SDS011;22957;50.824;4.360;2023-05-10T10:22:42;5.87;;;4.33;;
2390;SDS011;22957;50.824;4.360;2023-05-10T10:25:11;5.10;;;3.40;;
2390;SDS011;22957;50.824;4.360;2023-05-10T10:30:34;3.93;;;3.60;;
2390;SDS011;22957;50.824;4.360;2023-05-10T10:33:06;9.00;;;3.63;;
2390;SDS011;22957;50.824;4.360;2023-05-10T10:35:55;5.60;;;3.53;;
2390;SDS011;22957;50.824;4.360;2023-05-10T10:38:25;5.33;;;3.67;;
2390;SDS011;22957;50.824;4.360;2023-05-10T10:49:22;4.20;;;3.80;;
2390;SDS011;22957;50.824;4.360;2023-05-10T10:55:00;6.13;;;4.20;;
2390;SDS011;22957;50.824;4.360;2023-05-10T10:57:26;5.90;;;4.43;;
2390;SDS011;22957;50.824;4.360;2023-05-10T11:02:46;4.23;;;3.30;;
2390;SDS011;22957;50.824;4.360;2023-05-10T11:05:33;8.20;;;4.30;;
2390;SDS011;22957;50.824;4.360;2023-05-10T11:11:14;6.10;;;4.00;;
2390;SDS011;22957;50.824;4.360;2023-05-10T11:13:40;6.33;;;4.23;;
2390;SDS011;22957;50.824;4.360;2023-05-10T11:16:10;7.30;;;4.47;;
2390;SDS011;22957;50.824;4.360;2023-05-10T11:18:52;4.70;;;3.87;;
2390;SDS011;22957;50.824;4.360;2023-05-10T11:21:24;5.80;;;4.47;;
2390;SDS011;22957;50.824;4.360;2023-05-10T11:26:33;6.10;;;3.93;;
2390;SDS011;22957;50.824;4.360;2023-05-10T11:29:00;5.07;;;3.80;;
2390;SDS011;22957;50.824;4.360;2023-05-10T11:31:27;4.00;;;3.00;;
2390;SDS011;22957;50.824;4.360;2023-05-10T11:33:54;4.90;;;3.80;;
2390;SDS011;22957;50.824;4.360;2023-05-10T11:36:27;6.23;;;3.60;;
2390;SDS011;22957;50.824;4.360;2023-05-10T11:38:55;5.90;;;4.00;;
2390;SDS011;22957;50.824;4.360;2023-05-10T11:41:22;9.73;;;3.97;;
2390;SDS011;22957;50.824;4.360;2023-05-10T11:43:52;3.63;;;3.07;;
2390;SDS011;22957;50.824;4.360;2023-05-10T11:46:19;4.33;;;2.87;;
2390;SDS011;22957;50.824;4.360;2023-05-10T11:48:46;3.30;;;2.80;;
2390;SDS011;22957;50.824;4.360;2023-05-10T11:51:23;4.63;;;3.00;;
2390;SDS011;22957;50.824;4.360;2023-05-10T11:53:51;3.67;;;3.27;;
2390;SDS011;22957;50.824;4.360;2023-05-10T11:56:18;3.10;;;2.67;;
2390;SDS011;22957;50.824;4.360;2023-05-10T11:58:52;3.87;;;3.40;;
2390;SDS011;22957;50.824;4.360;2023-05-10T12:01:22;4.60;;;3.40;;
2390;SDS011;22957;50.824;4.360;2023-05-10T12:03:49;4.73;;;4.30;;
2390;SDS011;22957;50.824;4.360;2023-05-10T12:06:18;5.80;;;4.17;;
2390;SDS011;22957;50.824;4.360;2023-05-10T12:08:45;5.60;;;4.00;;
2390;SDS011;22957;50.824;4.360;2023-05-10T12:11:12;5.47;;;4.80;;
2390;SDS011;22957;50.824;4.360;2023-05-10T12:13:40;4.80;;;4.27;;
2390;SDS011;22957;50.824;4.360;2023-05-10T12:16:17;6.03;;;5.03;;
2390;SDS011;22957;50.824;4.360;2023-05-10T12:18:44;5.93;;;4.50;;
2390;SDS011;22957;50.824;4.360;2023-05-10T12:21:13;4.73;;;4.10;;
2390;SDS011;22957;50.824;4.360;2023-05-10T12:23:40;4.63;;;4.13;;
2390;SDS011;22957;50.824;4.360;2023-05-10T12:26:08;5.40;;;4.90;;
2390;SDS011;22957;50.824;4.360;2023-05-10T12:28:35;5.73;;;4.70;;
2390;SDS011;22957;50.824;4.360;2023-05-10T12:31:02;6.80;;;5.33;;
2390;SDS011;22957;50.824;4.360;2023-05-10T12:33:40;4.90;;;3.60;;
2390;SDS011;22957;50.824;4.360;2023-05-10T12:36:08;8.53;;;5.37;;
2390;SDS011;22957;50.824;4.360;2023-05-10T12:38:36;8.97;;;5.87;;
2390;SDS011;22957;50.824;4.360;2023-05-10T12:41:11;5.80;;;5.30;;
2390;SDS011;22957;50.824;4.360;2023-05-10T12:43:40;6.93;;;5.10;;
2390;SDS011;22957;50.824;4.360;2023-05-10T12:46:09;7.63;;;5.07;;
2390;SDS011;22957;50.824;4.360;2023-05-10T12:48:36;5.77;;;4.60;;
2390;SDS011;22957;50.824;4.360;2023-05-10T12:51:03;7.17;;;4.90;;
2390;SDS011;22957;50.824;4.360;2023-05-10T12:53:29;4.73;;;3.90;;
2390;SDS011;22957;50.824;4.360;2023-05-10T12:55:55;5.10;;;3.80;;
2390;SDS011;22957;50.824;4.360;2023-05-10T12:58:21;4.77;;;2.90;;
2390;SDS011;22957;50.824;4.360;2023-05-10T13:00:47;4.53;;;3.20;;
2390;SDS011;22957;50.824;4.360;2023-05-10T13:03:12;5.20;;;3.57;;
2390;SDS011;22957;50.824;4.360;2023-05-10T13:05:38;3.73;;;3.33;;
2390;SDS011;22957;50.824;4.360;2023-05-10T13:08:04;3.47;;;2.93;;
2390;SDS011;22957;50.824;4.360;2023-05-10T13:10:30;3.60;;;3.20;;
2390;SDS011;22957;50.824;4.360;2023-05-10T13:12:56;3.30;;;2.97;;
2390;SDS011;22957;50.824;4.360;2023-05-10T13:15:22;3.00;;;2.73;;
2390;SDS011;22957;50.824;4.360;2023-05-10T13:17:48;3.63;;;2.37;;
2390;SDS011;22957;50.824;4.360;2023-05-10T13:20:14;2.47;;;1.87;;
2390;SDS011;22957;50.824;4.360;2023-05-10T13:22:40;2.37;;;1.80;;
2390;SDS011;22957;50.824;4.360;2023-05-10T13:25:07;2.40;;;2.20;;
2390;SDS011;22957;50.824;4.360;2023-05-10T13:27:33;4.27;;;3.20;;
2390;SDS011;22957;50.824;4.360;2023-05-10T13:29:58;3.53;;;3.23;;
2390;SDS011;22957;50.824;4.360;2023-05-10T13:32:24;4.27;;;3.47;;
2390;SDS011;22957;50.824;4.360;2023-05-10T13:34:50;3.10;;;2.77;;
2390;SDS011;22957;50.824;4.360;2023-05-10T13:37:16;7.60;;;4.90;;
2390;SDS011;22957;50.824;4.360;2023-05-10T13:39:42;6.07;;;4.20;;
2390;SDS011;22957;50.824;4.360;2023-05-10T13:42:07;5.50;;;4.03;;
2390;SDS011;22957;50.824;4.360;2023-05-10T13:44:33;5.80;;;4.20;;
2390;SDS011;22957;50.824;4.360;2023-05-10T13:46:59;4.60;;;4.17;;
2390;SDS011;22957;50.824;4.360;2023-05-10T13:49:24;5.20;;;3.93;;
2390;SDS011;22957;50.824;4.360;2023-05-10T13:51:50;5.70;;;3.50;;
2390;SDS011;22957;50.824;4.360;2023-05-10T13:54:16;4.53;;;4.13;;
2390;SDS011;22957;50.824;4.360;2023-05-10T13:56:44;6.00;;;5.40;;
2390;SDS011;22957;50.824;4.360;2023-05-10T13:59:12;5.70;;;5.10;;
2390;SDS011;22957;50.824;4.360;2023-05-10T14:01:39;6.60;;;5.20;;
2390;SDS011;22957;50.824;4.360;2023-05-10T14:04:05;6.13;;;5.53;;
2390;SDS011;22957;50.824;4.360;2023-05-10T14:06:31;6.90;;;6.20;;
2390;SDS011;22957;50.824;4.360;2023-05-10T14:08:56;9.40;;;7.90;;
2390;SDS011;22957;50.824;4.360;2023-05-10T14:11:22;9.17;;;8.00;;
2390;SDS011;22957;50.824;4.360;2023-05-10T14:13:48;9.07;;;7.07;;
2390;SDS011;22957;50.824;4.360;2023-05-10T14:16:14;12.43;;;7.43;;
2390;SDS011;22957;50.824;4.360;2023-05-10T14:18:39;9.63;;;7.47;;
2390;SDS011;22957;50.824;4.360;2023-05-10T14:21:05;8.70;;;7.47;;
2390;SDS011;22957;50.824;4.360;2023-05-10T14:23:31;12.60;;;9.10;;
2390;SDS011;22957;50.824;4.360;2023-05-10T14:25:56;12.43;;;8.83;;
2390;SDS011;22957;50.824;4.360;2023-05-10T14:28:22;15.17;;;9.10;;
2390;SDS011;22957;50.824;4.360;2023-05-10T14:30:48;9.77;;;7.43;;
2390;SDS011;22957;50.824;4.360;2023-05-10T14:33:14;10.03;;;6.43;;
2390;SDS011;22957;50.824;4.360;2023-05-10T14:35:40;10.47;;;7.87;;
2390;SDS011;22957;50.824;4.360;2023-05-10T14:38:06;9.53;;;6.50;;
2390;SDS011;22957;50.824;4.360;2023-05-10T14:40:31;12.90;;;7.43;;
2390;SDS011;22957;50.824;4.360;2023-05-10T14:42:57;9.40;;;6.30;;
2390;SDS011;22957;50.824;4.360;2023-05-10T14:45:22;10.53;;;6.77;;
2390;SDS011;22957;50.824;4.360;2023-05-10T14:47:48;11.00;;;8.30;;
2390;SDS011;22957;50.824;4.360;2023-05-10T14:50:15;15.00;;;8.13;;
2390;SDS011;22957;50.824;4.360;2023-05-10T14:52:41;11.70;;;7.90;;
2390;SDS011;22957;50.824;4.360;2023-05-10T14:55:07;12.47;;;8.63;;
2390;SDS011;22957;50.824;4.360;2023-05-10T14:57:33;12.03;;;8.50;;
2390;SDS011;22957;50.824;4.360;2023-05-10T14:59:59;12.03;;;7.90;;
2390;SDS011;22957;50.824;4.360;2023-05-10T15:02:25;12.90;;;8.30;;
2390;SDS011;22957;50.824;4.360;2023-05-10T15:04:50;13.40;;;7.60;;
2390;SDS011;22957;50.824;4.360;2023-05-10T15:07:16;12.73;;;8.87;;
2390;SDS011;22957;50.824;4.360;2023-05-10T15:09:43;12.67;;;7.47;;
2390;SDS011;22957;50.824;4.360;2023-05-10T15:12:11;9.47;;;7.30;;
2390;SDS011;22957;50.824;4.360;2023-05-10T15:14:37;13.10;;;6.10;;
2390;SDS011;22957;50.824;4.360;2023-05-10T15:17:03;10.97;;;5.30;;
2390;SDS011;22957;50.824;4.360;2023-05-10T15:19:31;6.17;;;4.00;;
2390;SDS011;22957;50.824;4.360;2023-05-10T15:21:58;10.03;;;4.17;;
2390;SDS011;22957;50.824;4.360;2023-05-10T15:24:24;8.10;;;4.03;;
2390;SDS011;22957;50.824;4.360;2023-05-10T15:26:49;6.40;;;4.20;;
2390;SDS011;22957;50.824;4.360;2023-05-10T15:29:15;8.13;;;3.40;;
2390;SDS011;22957;50.824;4.360;2023-05-10T15:31:48;6.30;;;3.17;;
2390;SDS011;22957;50.824;4.360;2023-05-10T15:34:15;4.20;;;2.63;;
2390;SDS011;22957;50.824;4.360;2023-05-10T15:36:41;6.03;;;2.70;;
2390;SDS011;22957;50.824;4.360;2023-05-10T15:39:07;6.37;;;2.10;;
2390;SDS011;22957;50.824;4.360;2023-05-10T15:41:34;5.63;;;2.30;;